sensor_id;sensor_type;location;lat;lon;timestamp;pressure;altitude;pressure_sealevel;temperature;humidity
78337;BME280;67610;51.588;7.002;2023-07-31T00:00:49;100347.59;;;17.62;75.43
78337;BME280;67610;51.588;7.002;2023-07-31T00:03:14;100340.84;;;17.59;75.85
78337;BME280;67610;51.588;7.002;2023-07-31T00:05:40;100338.78;;;17.61;76.14
78337;BME280;67610;51.588;7.002;2023-07-31T00:08:05;100338.59;;;17.63;75.06
78337;BME280;67610;51.588;7.002;2023-07-31T00:10:30;100338.59;;;17.63;75.57
78337;BME280;67610;51.588;7.002;2023-07-31T00:12:56;100335.94;;;17.63;75.45
78337;BME280;67610;51.588;7.002;2023-07-31T00:15:21;100332.47;;;17.62;75.74
78337;BME280;67610;51.588;7.002;2023-07-31T00:17:46;100335.75;;;17.64;75.83
78337;BME280;67610;51.588;7.002;2023-07-31T00:20:12;100322.00;;;17.67;76.00
78337;BME280;67610;51.588;7.002;2023-07-31T00:22:38;100328.56;;;17.71;75.87
78337;BME280;67610;51.588;7.002;2023-07-31T00:25:03;100321.59;;;17.70;76.13
78337;BME280;67610;51.588;7.002;2023-07-31T00:27:31;100324.25;;;17.77;76.91
78337;BME280;67610;51.588;7.002;2023-07-31T00:29:57;100317.50;;;17.68;77.24
78337;BME280;67610;51.588;7.002;2023-07-31T00:32:22;100317.28;;;17.69;77.99
78337;BME280;67610;51.588;7.002;2023-07-31T00:34:47;100305.63;;;17.77;78.46
78337;BME280;67610;51.588;7.002;2023-07-31T00:37:13;100314.44;;;17.84;78.25
78337;BME280;67610;51.588;7.002;2023-07-31T00:39:38;100308.31;;;17.90;78.34
78337;BME280;67610;51.588;7.002;2023-07-31T00:42:04;100313.41;;;17.91;78.24
78337;BME280;67610;51.588;7.002;2023-07-31T00:44:29;100314.63;;;17.89;79.35
78337;BME280;67610;51.588;7.002;2023-07-31T00:46:55;100313.81;;;17.95;78.98
78337;BME280;67610;51.588;7.002;2023-07-31T00:49:22;100306.25;;;17.92;78.95
78337;BME280;67610;51.588;7.002;2023-07-31T00:51:47;100311.34;;;17.93;78.66
78337;BME280;67610;51.588;7.002;2023-07-31T00:54:13;100305.19;;;17.99;78.47
78337;BME280;67610;51.588;7.002;2023-07-31T00:56:39;100307.06;;;17.99;78.59
78337;BME280;67610;51.588;7.002;2023-07-31T00:59:05;100311.94;;;18.02;78.74
78337;BME280;67610;51.588;7.002;2023-07-31T01:01:31;100314.63;;;17.95;78.37
78337;BME280;67610;51.588;7.002;2023-07-31T01:03:56;100308.28;;;18.03;78.25
78337;BME280;67610;51.588;7.002;2023-07-31T01:11:33;100309.91;;;18.04;78.14
78337;BME280;67610;51.588;7.002;2023-07-31T01:14:00;100311.13;;;18.08;78.07
78337;BME280;67610;51.588;7.002;2023-07-31T01:16:25;100306.44;;;18.03;78.10
78337;BME280;67610;51.588;7.002;2023-07-31T01:18:52;100298.84;;;18.07;77.83
78337;BME280;67610;51.588;7.002;2023-07-31T01:24:22;100308.91;;;17.98;78.26
78337;BME280;67610;51.588;7.002;2023-07-31T01:27:15;100308.06;;;18.04;77.79
78337;BME280;67610;51.588;7.002;2023-07-31T01:29:47;100308.66;;;18.06;78.00
78337;BME280;67610;51.588;7.002;2023-07-31T01:32:14;100307.03;;;18.12;77.14
78337;BME280;67610;51.588;7.002;2023-07-31T01:34:41;100303.16;;;18.08;77.46
78337;BME280;67610;51.588;7.002;2023-07-31T01:37:06;100305.38;;;18.11;77.44
78337;BME280;67610;51.588;7.002;2023-07-31T01:39:32;100305.63;;;18.03;77.44
78337;BME280;67610;51.588;7.002;2023-07-31T01:41:57;100302.13;;;18.02;77.54
78337;BME280;67610;51.588;7.002;2023-07-31T01:44:23;100300.09;;;17.98;77.47
78337;BME280;67610;51.588;7.002;2023-07-31T01:46:48;100300.09;;;17.98;77.51
78337;BME280;67610;51.588;7.002;2023-07-31T01:49:13;100295.19;;;18.01;77.19
78337;BME280;67610;51.588;7.002;2023-07-31T01:51:39;100302.31;;;18.07;76.95
78337;BME280;67610;51.588;7.002;2023-07-31T01:54:04;100297.63;;;18.03;77.53
78337;BME280;67610;51.588;7.002;2023-07-31T01:56:30;100293.53;;;18.07;77.22
78337;BME280;67610;51.588;7.002;2023-07-31T01:58:55;100298.84;;;18.07;76.67
78337;BME280;67610;51.588;7.002;2023-07-31T02:01:21;100278.75;;;18.11;76.00
78337;BME280;67610;51.588;7.002;2023-07-31T02:03:46;100290.25;;;18.05;76.42
78337;BME280;67610;51.588;7.002;2023-07-31T02:06:14;100285.94;;;18.04;76.49
78337;BME280;67610;51.588;7.002;2023-07-31T02:08:39;100296.19;;;18.00;76.64
78337;BME280;67610;51.588;7.002;2023-07-31T02:11:05;100290.06;;;18.00;76.43
78337;BME280;67610;51.588;7.002;2023-07-31T02:13:30;100291.47;;;18.02;76.33
78337;BME280;67610;51.588;7.002;2023-07-31T02:15:55;100284.13;;;17.98;76.21
78337;BME280;67610;51.588;7.002;2023-07-31T02:18:21;100273.47;;;17.98;75.89
78337;BME280;67610;51.588;7.002;2023-07-31T02:20:51;100285.56;;;17.94;76.21
78337;BME280;67610;51.588;7.002;2023-07-31T02:23:20;100283.53;;;17.96;76.13
78337;BME280;67610;51.588;7.002;2023-07-31T02:25:46;100287.38;;;18.00;75.86
78337;BME280;67610;51.588;7.002;2023-07-31T02:28:11;100280.84;;;17.96;76.30
78337;BME280;67610;51.588;7.002;2023-07-31T02:30:36;100280.63;;;17.97;75.91
78337;BME280;67610;51.588;7.002;2023-07-31T02:33:02;100282.91;;;17.94;75.42
78337;BME280;67610;51.588;7.002;2023-07-31T02:35:27;100277.97;;;17.97;75.21
78337;BME280;67610;51.588;7.002;2023-07-31T02:37:53;100276.13;;;17.98;75.42
78337;BME280;67610;51.588;7.002;2023-07-31T02:40:18;100278.41;;;17.94;75.61
78337;BME280;67610;51.588;7.002;2023-07-31T02:42:44;100274.50;;;17.97;75.37
78337;BME280;67610;51.588;7.002;2023-07-31T02:45:09;100285.78;;;17.99;75.43
78337;BME280;67610;51.588;7.002;2023-07-31T02:47:35;100280.63;;;18.04;74.59
78337;BME280;67610;51.588;7.002;2023-07-31T02:50:01;100279.22;;;18.01;74.62
78337;BME280;67610;51.588;7.002;2023-07-31T02:52:27;100283.72;;;18.01;74.43
78337;BME280;67610;51.588;7.002;2023-07-31T02:54:52;100283.28;;;18.04;74.07
78337;BME280;67610;51.588;7.002;2023-07-31T02:57:17;100272.47;;;17.99;74.56
78337;BME280;67610;51.588;7.002;2023-07-31T02:59:43;100270.22;;;17.96;74.37
78337;BME280;67610;51.588;7.002;2023-07-31T03:02:08;100264.28;;;17.94;74.44
78337;BME280;67610;51.588;7.002;2023-07-31T03:04:33;100264.28;;;17.94;74.39
78337;BME280;67610;51.588;7.002;2023-07-31T03:06:59;100259.56;;;17.96;74.15
78337;BME280;67610;51.588;7.002;2023-07-31T03:09:24;100261.19;;;17.90;74.14
78337;BME280;67610;51.588;7.002;2023-07-31T03:11:50;100254.44;;;17.88;74.23
78337;BME280;67610;51.588;7.002;2023-07-31T03:14:15;100255.88;;;17.90;74.18
78337;BME280;67610;51.588;7.002;2023-07-31T03:16:40;100265.09;;;17.88;73.81
78337;BME280;67610;51.588;7.002;2023-07-31T03:19:06;100251.38;;;17.91;74.02
78337;BME280;67610;51.588;7.002;2023-07-31T03:21:31;100249.94;;;17.95;73.82
78337;BME280;67610;51.588;7.002;2023-07-31T03:23:56;100260.41;;;17.90;73.85
78337;BME280;67610;51.588;7.002;2023-07-31T03:26:22;100255.69;;;17.92;73.58
78337;BME280;67610;51.588;7.002;2023-07-31T03:28:47;100256.50;;;17.92;74.03
78337;BME280;67610;51.588;7.002;2023-07-31T03:31:12;100257.91;;;17.95;73.61
78337;BME280;67610;51.588;7.002;2023-07-31T03:33:38;100259.16;;;17.99;73.56
78337;BME280;67610;51.588;7.002;2023-07-31T03:36:04;100255.44;;;18.00;72.95
78337;BME280;67610;51.588;7.002;2023-07-31T03:38:29;100266.50;;;17.97;73.20
78337;BME280;67610;51.588;7.002;2023-07-31T03:40:54;100270.16;;;18.09;72.65
78337;BME280;67610;51.588;7.002;2023-07-31T03:43:20;100266.50;;;18.03;72.88
78337;BME280;67610;51.588;7.002;2023-07-31T03:45:45;100265.28;;;17.99;73.25
78337;BME280;67610;51.588;7.002;2023-07-31T03:48:11;100255.06;;;17.96;73.29
78337;BME280;67610;51.588;7.002;2023-07-31T03:50:36;100256.66;;;18.04;73.28
78337;BME280;67610;51.588;7.002;2023-07-31T03:53:02;100252.38;;;18.09;73.01
78337;BME280;67610;51.588;7.002;2023-07-31T03:55:27;100251.34;;;18.04;73.28
78337;BME280;67610;51.588;7.002;2023-07-31T03:57:52;100254.44;;;18.01;73.14
78337;BME280;67610;51.588;7.002;2023-07-31T04:00:18;100243.56;;;18.02;73.16
78337;BME280;67610;51.588;7.002;2023-07-31T04:02:43;100246.25;;;17.96;73.50
78337;BME280;67610;51.588;7.002;2023-07-31T04:05:09;100250.13;;;18.00;73.97
78337;BME280;67610;51.588;7.002;2023-07-31T04:07:34;100248.06;;;18.08;73.19
78337;BME280;67610;51.588;7.002;2023-07-31T04:10:00;100238.66;;;18.12;72.96
78337;BME280;67610;51.588;7.002;2023-07-31T04:12:26;100244.16;;;18.11;73.57
78337;BME280;67610;51.588;7.002;2023-07-31T04:14:51;100240.47;;;18.12;73.58
78337;BME280;67610;51.588;7.002;2023-07-31T04:17:20;100246.44;;;18.07;73.65
78337;BME280;67610;51.588;7.002;2023-07-31T04:19:45;100233.34;;;18.06;73.70
78337;BME280;67610;51.588;7.002;2023-07-31T04:22:11;100240.69;;;18.10;73.16
78337;BME280;67610;51.588;7.002;2023-07-31T04:24:36;100237.22;;;18.10;73.68
78337;BME280;67610;51.588;7.002;2023-07-31T04:27:02;100235.53;;;18.15;73.49
78337;BME280;67610;51.588;7.002;2023-07-31T04:29:28;100224.91;;;18.22;73.09
78337;BME280;67610;51.588;7.002;2023-07-31T04:31:53;100225.50;;;18.24;72.95
78337;BME280;67610;51.588;7.002;2023-07-31T04:34:19;100230.38;;;18.27;72.97
78337;BME280;67610;51.588;7.002;2023-07-31T04:36:44;100222.56;;;18.32;72.64
78337;BME280;67610;51.588;7.002;2023-07-31T04:39:09;100231.63;;;18.31;72.51
78337;BME280;67610;51.588;7.002;2023-07-31T04:41:35;100232.84;;;18.29;72.99
78337;BME280;67610;51.588;7.002;2023-07-31T04:44:01;100220.50;;;18.34;72.98
78337;BME280;67610;51.588;7.002;2023-07-31T04:46:26;100224.00;;;18.35;72.80
78337;BME280;67610;51.588;7.002;2023-07-31T04:48:51;100221.56;;;18.33;73.35
78337;BME280;67610;51.588;7.002;2023-07-31T04:51:17;100224.63;;;18.30;73.59
78337;BME280;67610;51.588;7.002;2023-07-31T04:53:42;100231.16;;;18.34;73.40
78337;BME280;67610;51.588;7.002;2023-07-31T04:56:07;100218.91;;;18.33;73.65
78337;BME280;67610;51.588;7.002;2023-07-31T04:58:33;100220.97;;;18.31;73.89
78337;BME280;67610;51.588;7.002;2023-07-31T05:00:58;100220.50;;;18.34;73.82
78337;BME280;67610;51.588;7.002;2023-07-31T05:03:24;100218.25;;;18.38;73.82
78337;BME280;67610;51.588;7.002;2023-07-31T05:05:49;100215.38;;;18.39;73.89
78337;BME280;67610;51.588;7.002;2023-07-31T05:08:15;100219.47;;;18.42;73.77
78337;BME280;67610;51.588;7.002;2023-07-31T05:10:42;100216.56;;;18.43;74.08
78337;BME280;67610;51.588;7.002;2023-07-31T05:13:08;100211.47;;;18.48;73.68
78337;BME280;67610;51.588;7.002;2023-07-31T05:15:33;100201.66;;;18.42;73.85
78337;BME280;67610;51.588;7.002;2023-07-31T05:17:58;100196.31;;;18.49;73.76
78337;BME280;67610;51.588;7.002;2023-07-31T05:20:24;100202.06;;;18.46;73.91
78337;BME280;67610;51.588;7.002;2023-07-31T05:22:50;100202.47;;;18.49;73.71
78337;BME280;67610;51.588;7.002;2023-07-31T05:25:16;100206.31;;;18.53;74.04
78337;BME280;67610;51.588;7.002;2023-07-31T05:27:41;100195.44;;;18.55;73.69
78337;BME280;67610;51.588;7.002;2023-07-31T05:30:07;100199.72;;;18.62;73.62
78337;BME280;67610;51.588;7.002;2023-07-31T05:32:32;100191.34;;;18.59;73.30
78337;BME280;67610;51.588;7.002;2023-07-31T05:34:58;100196.44;;;18.60;73.65
78337;BME280;67610;51.588;7.002;2023-07-31T05:37:24;100190.53;;;18.58;74.04
78337;BME280;67610;51.588;7.002;2023-07-31T05:39:49;100187.00;;;18.64;73.68
78337;BME280;67610;51.588;7.002;2023-07-31T05:42:14;100192.53;;;18.63;74.09
78337;BME280;67610;51.588;7.002;2023-07-31T05:44:43;100187.03;;;18.58;74.68
78337;BME280;67610;51.588;7.002;2023-07-31T05:47:09;100181.50;;;18.59;74.55
78337;BME280;67610;51.588;7.002;2023-07-31T05:49:34;100177.63;;;18.55;74.74
78337;BME280;67610;51.588;7.002;2023-07-31T05:51:59;100181.94;;;18.56;74.96
78337;BME280;67610;51.588;7.002;2023-07-31T05:54:25;100178.03;;;18.59;75.12
78337;BME280;67610;51.588;7.002;2023-07-31T05:56:50;100167.41;;;18.52;75.48
78337;BME280;67610;51.588;7.002;2023-07-31T05:59:16;100163.47;;;18.55;75.40
78337;BME280;67610;51.588;7.002;2023-07-31T06:01:41;100156.78;;;18.52;75.71
78337;BME280;67610;51.588;7.002;2023-07-31T06:04:07;100159.03;;;18.49;76.02
78337;BME280;67610;51.588;7.002;2023-07-31T06:06:32;100156.91;;;18.57;75.88
78337;BME280;67610;51.588;7.002;2023-07-31T06:08:57;100152.22;;;18.53;75.53
78337;BME280;67610;51.588;7.002;2023-07-31T06:11:23;100153.47;;;18.50;75.82
78337;BME280;67610;51.588;7.002;2023-07-31T06:13:48;100157.38;;;18.54;75.98
78337;BME280;67610;51.588;7.002;2023-07-31T06:16:14;100148.56;;;18.54;76.12
78337;BME280;67610;51.588;7.002;2023-07-31T06:18:41;100150.81;;;18.50;76.17
78337;BME280;67610;51.588;7.002;2023-07-31T06:21:06;100152.47;;;18.51;76.39
78337;BME280;67610;51.588;7.002;2023-07-31T06:23:32;100149.78;;;18.51;76.20
78337;BME280;67610;51.588;7.002;2023-07-31T06:25:57;100150.81;;;18.50;76.78
78337;BME280;67610;51.588;7.002;2023-07-31T06:28:27;100143.22;;;18.54;76.47
78337;BME280;67610;51.588;7.002;2023-07-31T06:30:54;100151.81;;;18.56;76.61
78337;BME280;67610;51.588;7.002;2023-07-31T06:33:19;100144.66;;;18.56;76.68
78337;BME280;67610;51.588;7.002;2023-07-31T06:35:44;100144.97;;;18.66;77.00
78337;BME280;67610;51.588;7.002;2023-07-31T06:38:10;100150.53;;;18.65;77.20
78337;BME280;67610;51.588;7.002;2023-07-31T06:40:36;100137.84;;;18.60;76.76
78337;BME280;67610;51.588;7.002;2023-07-31T06:43:01;100147.84;;;18.65;76.88
78337;BME280;67610;51.588;7.002;2023-07-31T06:45:33;100142.53;;;18.65;77.44
78337;BME280;67610;51.588;7.002;2023-07-31T06:47:59;100139.28;;;18.63;77.50
78337;BME280;67610;51.588;7.002;2023-07-31T06:50:27;100140.69;;;18.65;77.28
78337;BME280;67610;51.588;7.002;2023-07-31T06:52:52;100136.31;;;18.71;76.79
78337;BME280;67610;51.588;7.002;2023-07-31T06:55:18;100137.16;;;18.71;77.17
78337;BME280;67610;51.588;7.002;2023-07-31T06:57:44;100139.63;;;18.73;77.30
78337;BME280;67610;51.588;7.002;2023-07-31T07:00:10;100137.91;;;18.78;76.77
78337;BME280;67610;51.588;7.002;2023-07-31T07:02:35;100128.44;;;18.82;77.19
78337;BME280;67610;51.588;7.002;2023-07-31T07:05:01;100133.53;;;18.91;76.45
78337;BME280;67610;51.588;7.002;2023-07-31T07:07:26;100136.41;;;18.89;76.56
78337;BME280;67610;51.588;7.002;2023-07-31T07:09:52;100127.81;;;18.87;76.42
78337;BME280;67610;51.588;7.002;2023-07-31T07:12:17;100127.97;;;18.92;76.48
78337;BME280;67610;51.588;7.002;2023-07-31T07:14:42;100125.69;;;18.96;76.30
78337;BME280;67610;51.588;7.002;2023-07-31T07:17:08;100128.34;;;18.96;76.27
78337;BME280;67610;51.588;7.002;2023-07-31T07:19:33;100137.84;;;18.92;76.57
78337;BME280;67610;51.588;7.002;2023-07-31T07:21:59;100135.81;;;18.87;76.96
78337;BME280;67610;51.588;7.002;2023-07-31T07:24:27;100127.59;;;18.89;76.74
78337;BME280;67610;51.588;7.002;2023-07-31T07:26:52;100122.09;;;18.83;76.89
78337;BME280;67610;51.588;7.002;2023-07-31T07:29:17;100123.13;;;18.82;76.90
78337;BME280;67610;51.588;7.002;2023-07-31T07:31:43;100118.25;;;18.79;77.11
78337;BME280;67610;51.588;7.002;2023-07-31T07:34:11;100119.72;;;18.75;77.50
78337;BME280;67610;51.588;7.002;2023-07-31T07:36:36;100120.31;;;18.77;77.22
78337;BME280;67610;51.588;7.002;2023-07-31T07:39:02;100129.66;;;18.87;76.75
78337;BME280;67610;51.588;7.002;2023-07-31T07:41:28;100118.41;;;18.85;76.74
78337;BME280;67610;51.588;7.002;2023-07-31T07:43:53;100112.84;;;18.86;76.70
78337;BME280;67610;51.588;7.002;2023-07-31T07:46:18;100124.09;;;18.88;76.58
78337;BME280;67610;51.588;7.002;2023-07-31T07:48:44;100123.28;;;18.88;76.07
78337;BME280;67610;51.588;7.002;2023-07-31T07:51:09;100121.69;;;18.87;76.29
78337;BME280;67610;51.588;7.002;2023-07-31T07:53:34;100112.31;;;18.77;76.71
78337;BME280;67610;51.588;7.002;2023-07-31T07:56:00;100115.34;;;18.81;76.59
78337;BME280;67610;51.588;7.002;2023-07-31T07:58:25;100113.28;;;18.83;76.64
78337;BME280;67610;51.588;7.002;2023-07-31T08:00:51;100115.75;;;18.85;76.68
78337;BME280;67610;51.588;7.002;2023-07-31T08:03:17;100108.34;;;18.87;76.68
78337;BME280;67610;51.588;7.002;2023-07-31T08:05:43;100112.84;;;18.86;76.75
78337;BME280;67610;51.588;7.002;2023-07-31T08:08:13;100111.88;;;18.80;77.13
78337;BME280;67610;51.588;7.002;2023-07-31T08:10:39;100116.59;;;18.78;77.11
78337;BME280;67610;51.588;7.002;2023-07-31T08:13:04;100111.59;;;18.89;76.48
78337;BME280;67610;51.588;7.002;2023-07-31T08:15:29;100110.84;;;18.81;76.61
78337;BME280;67610;51.588;7.002;2023-07-31T08:17:55;100103.09;;;18.80;77.00
78337;BME280;67610;51.588;7.002;2023-07-31T08:20:20;100098.41;;;18.75;77.06
78337;BME280;67610;51.588;7.002;2023-07-31T08:22:46;100093.22;;;18.80;76.89
78337;BME280;67610;51.588;7.002;2023-07-31T08:25:11;100103.22;;;18.85;76.18
78337;BME280;67610;51.588;7.002;2023-07-31T08:27:36;100100.78;;;18.83;76.55
78337;BME280;67610;51.588;7.002;2023-07-31T08:30:02;100098.41;;;18.75;77.21
78337;BME280;67610;51.588;7.002;2023-07-31T08:32:28;100096.09;;;18.79;76.58
78337;BME280;67610;51.588;7.002;2023-07-31T08:34:53;100096.16;;;18.72;77.39
78337;BME280;67610;51.588;7.002;2023-07-31T08:37:18;100091.25;;;18.69;77.05
78337;BME280;67610;51.588;7.002;2023-07-31T08:39:44;100090.06;;;18.65;77.03
78337;BME280;67610;51.588;7.002;2023-07-31T08:42:09;100085.50;;;18.72;77.02
78337;BME280;67610;51.588;7.002;2023-07-31T08:44:35;100083.50;;;18.68;77.24
78337;BME280;67610;51.588;7.002;2023-07-31T08:47:01;100088.81;;;18.68;77.00
78337;BME280;67610;51.588;7.002;2023-07-31T08:49:27;100087.56;;;18.70;77.09
78337;BME280;67610;51.588;7.002;2023-07-31T08:51:54;100087.13;;;18.73;76.99
78337;BME280;67610;51.588;7.002;2023-07-31T08:54:23;100090.78;;;18.79;76.51
78337;BME280;67610;51.588;7.002;2023-07-31T08:56:49;100092.91;;;18.70;77.22
78337;BME280;67610;51.588;7.002;2023-07-31T08:59:16;100085.88;;;18.76;76.80
78337;BME280;67610;51.588;7.002;2023-07-31T09:01:49;100094.53;;;18.71;77.00
78337;BME280;67610;51.588;7.002;2023-07-31T09:04:16;100098.00;;;18.72;77.19
78337;BME280;67610;51.588;7.002;2023-07-31T09:06:42;100097.00;;;18.73;77.22
78337;BME280;67610;51.588;7.002;2023-07-31T09:09:09;100096.69;;;18.81;76.89
78337;BME280;67610;51.588;7.002;2023-07-31T09:11:35;100088.47;;;18.82;76.30
78337;BME280;67610;51.588;7.002;2023-07-31T09:14:00;100085.88;;;18.76;76.87
78337;BME280;67610;51.588;7.002;2023-07-31T09:16:28;100098.19;;;18.77;76.84
78337;BME280;67610;51.588;7.002;2023-07-31T09:18:57;100092.84;;;18.77;76.38
78337;BME280;67610;51.588;7.002;2023-07-31T09:21:24;100096.94;;;18.79;76.27
78337;BME280;67610;51.588;7.002;2023-07-31T09:23:51;100092.63;;;18.78;76.65
78337;BME280;67610;51.588;7.002;2023-07-31T09:26:35;100085.38;;;18.86;76.36
78337;BME280;67610;51.588;7.002;2023-07-31T09:29:04;100084.97;;;18.89;77.21
78337;BME280;67610;51.588;7.002;2023-07-31T09:31:33;100088.59;;;18.94;76.11
78337;BME280;67610;51.588;7.002;2023-07-31T09:33:58;100084.66;;;18.97;76.02
78337;BME280;67610;51.588;7.002;2023-07-31T09:36:29;100079.28;;;19.03;75.38
78337;BME280;67610;51.588;7.002;2023-07-31T09:38:55;100072.97;;;18.98;76.11
78337;BME280;67610;51.588;7.002;2023-07-31T09:41:20;100078.69;;;19.01;75.75
78337;BME280;67610;51.588;7.002;2023-07-31T09:43:53;100075.16;;;19.07;76.05
78337;BME280;67610;51.588;7.002;2023-07-31T09:46:20;100074.91;;;19.09;75.81
78337;BME280;67610;51.588;7.002;2023-07-31T09:48:45;100078.63;;;19.08;76.06
78337;BME280;67610;51.588;7.002;2023-07-31T09:51:11;100069.34;;;19.10;76.68
78337;BME280;67610;51.588;7.002;2023-07-31T09:53:36;100075.75;;;19.09;76.55
78337;BME280;67610;51.588;7.002;2023-07-31T09:56:02;100066.84;;;19.15;76.23
78337;BME280;67610;51.588;7.002;2023-07-31T09:58:28;100063.59;;;19.13;76.64
78337;BME280;67610;51.588;7.002;2023-07-31T10:00:57;100060.94;;;19.13;76.73
78337;BME280;67610;51.588;7.002;2023-07-31T10:03:23;100071.16;;;19.16;76.86
78337;BME280;67610;51.588;7.002;2023-07-31T10:05:50;100061.75;;;19.14;77.27
78337;BME280;67610;51.588;7.002;2023-07-31T10:08:18;100067.25;;;19.19;76.47
78337;BME280;67610;51.588;7.002;2023-07-31T10:10:45;100065.97;;;19.21;76.77
78337;BME280;67610;51.588;7.002;2023-07-31T10:13:12;100058.78;;;19.22;76.67
78337;BME280;67610;51.588;7.002;2023-07-31T10:15:38;100060.13;;;19.31;75.89
78337;BME280;67610;51.588;7.002;2023-07-31T10:18:06;100055.09;;;19.23;76.45
78337;BME280;67610;51.588;7.002;2023-07-31T10:20:31;100056.56;;;19.19;76.81
78337;BME280;67610;51.588;7.002;2023-07-31T10:22:57;100059.97;;;19.26;77.02
78337;BME280;67610;51.588;7.002;2023-07-31T10:25:26;100064.41;;;19.32;77.15
78337;BME280;67610;51.588;7.002;2023-07-31T10:27:52;100060.13;;;19.31;76.55
78337;BME280;67610;51.588;7.002;2023-07-31T10:30:20;100064.41;;;19.32;76.76
78337;BME280;67610;51.588;7.002;2023-07-31T10:32:48;100050.84;;;19.33;76.22
78337;BME280;67610;51.588;7.002;2023-07-31T10:35:16;100055.47;;;19.26;76.42
78337;BME280;67610;51.588;7.002;2023-07-31T10:37:42;100056.72;;;19.24;76.66
78337;BME280;67610;51.588;7.002;2023-07-31T10:42:49;100060.25;;;19.18;77.16
78337;BME280;67610;51.588;7.002;2023-07-31T10:47:58;100061.25;;;19.23;76.66
78337;BME280;67610;51.588;7.002;2023-07-31T10:50:25;100060.50;;;19.16;76.43
78337;BME280;67610;51.588;7.002;2023-07-31T10:52:53;100060.09;;;19.13;77.24
78337;BME280;67610;51.588;7.002;2023-07-31T10:55:29;100057.81;;;19.16;77.05
78337;BME280;67610;51.588;7.002;2023-07-31T10:57:56;100050.78;;;19.22;76.80
78337;BME280;67610;51.588;7.002;2023-07-31T11:00:24;100056.41;;;19.32;76.10
78337;BME280;67610;51.588;7.002;2023-07-31T11:03:03;100050.25;;;19.38;76.19
78337;BME280;67610;51.588;7.002;2023-07-31T11:05:49;100048.16;;;19.40;76.42
78337;BME280;67610;51.588;7.002;2023-07-31T11:08:21;100044.59;;;19.46;76.35
78337;BME280;67610;51.588;7.002;2023-07-31T11:10:48;100047.25;;;19.46;76.29
78337;BME280;67610;51.588;7.002;2023-07-31T11:13:14;100050.91;;;19.52;75.85
78337;BME280;67610;51.588;7.002;2023-07-31T11:15:40;100054.16;;;19.54;75.89
78337;BME280;67610;51.588;7.002;2023-07-31T11:18:06;100050.09;;;19.51;75.74
78337;BME280;67610;51.588;7.002;2023-07-31T11:20:34;100053.50;;;19.58;75.54
78337;BME280;67610;51.588;7.002;2023-07-31T11:23:05;100058.91;;;19.52;75.69
78337;BME280;67610;51.588;7.002;2023-07-31T11:25:31;100055.84;;;19.48;75.68
78337;BME280;67610;51.588;7.002;2023-07-31T11:28:11;100049.50;;;19.49;75.74
78337;BME280;67610;51.588;7.002;2023-07-31T11:30:37;100053.78;;;19.50;75.91
78337;BME280;67610;51.588;7.002;2023-07-31T11:33:04;100058.91;;;19.52;76.24
78337;BME280;67610;51.588;7.002;2023-07-31T11:35:34;100057.19;;;19.57;76.43
78337;BME280;67610;51.588;7.002;2023-07-31T11:38:00;100037.84;;;19.62;75.96
78337;BME280;67610;51.588;7.002;2023-07-31T11:40:28;100045.63;;;19.63;75.99
78337;BME280;67610;51.588;7.002;2023-07-31T11:42:58;100039.25;;;19.64;75.89
78337;BME280;67610;51.588;7.002;2023-07-31T11:45:27;100039.72;;;19.73;75.83
78337;BME280;67610;51.588;7.002;2023-07-31T11:47:56;100038.41;;;19.82;75.34
78337;BME280;67610;51.588;7.002;2023-07-31T11:50:23;100042.09;;;19.81;75.28
78337;BME280;67610;51.588;7.002;2023-07-31T11:52:56;100041.75;;;19.77;75.70
78337;BME280;67610;51.588;7.002;2023-07-31T11:55:22;100046.63;;;19.80;75.78
78337;BME280;67610;51.588;7.002;2023-07-31T11:57:48;100043.84;;;19.87;76.04
78337;BME280;67610;51.588;7.002;2023-07-31T12:00:14;100050.84;;;19.88;75.65
78337;BME280;67610;51.588;7.002;2023-07-31T12:02:40;100052.84;;;19.92;76.04
78337;BME280;67610;51.588;7.002;2023-07-31T12:05:13;100054.97;;;20.02;75.76
78337;BME280;67610;51.588;7.002;2023-07-31T12:07:48;100049.53;;;20.08;75.37
78337;BME280;67610;51.588;7.002;2023-07-31T12:13:09;100041.28;;;20.10;75.33
78337;BME280;67610;51.588;7.002;2023-07-31T12:15:45;100031.09;;;20.18;74.98
78337;BME280;67610;51.588;7.002;2023-07-31T12:18:13;100036.66;;;20.17;74.78
78337;BME280;67610;51.588;7.002;2023-07-31T12:20:46;100033.06;;;20.11;74.66
78337;BME280;67610;51.588;7.002;2023-07-31T12:23:20;100040.69;;;20.08;75.10
78337;BME280;67610;51.588;7.002;2023-07-31T12:26:05;100046.28;;;20.06;74.97
78337;BME280;67610;51.588;7.002;2023-07-31T12:28:36;100040.34;;;20.04;75.28
78337;BME280;67610;51.588;7.002;2023-07-31T12:31:04;100037.00;;;20.09;74.94
78337;BME280;67610;51.588;7.002;2023-07-31T12:33:34;100029.31;;;20.12;75.21
78337;BME280;67610;51.588;7.002;2023-07-31T12:36:02;100028.88;;;20.15;74.50
78337;BME280;67610;51.588;7.002;2023-07-31T12:38:28;100028.31;;;20.13;74.60
78337;BME280;67610;51.588;7.002;2023-07-31T12:40:54;100028.75;;;20.10;75.24
78337;BME280;67610;51.588;7.002;2023-07-31T12:43:19;100026.06;;;20.10;75.05
78337;BME280;67610;51.588;7.002;2023-07-31T12:45:44;100024.00;;;20.12;75.11
78337;BME280;67610;51.588;7.002;2023-07-31T12:48:10;100018.78;;;20.17;74.83
78337;BME280;67610;51.588;7.002;2023-07-31T12:50:35;100016.69;;;20.19;74.76
78337;BME280;67610;51.588;7.002;2023-07-31T12:53:02;100030.66;;;20.22;75.08
78337;BME280;67610;51.588;7.002;2023-07-31T12:55:28;100016.03;;;20.24;75.15
78337;BME280;67610;51.588;7.002;2023-07-31T12:57:55;100018.34;;;20.20;74.99
78337;BME280;67610;51.588;7.002;2023-07-31T13:00:21;100014.44;;;20.23;74.73
78337;BME280;67610;51.588;7.002;2023-07-31T13:02:46;100009.66;;;20.25;74.72